Time;durP1;ratioP1;P1;durP2;ratioP2;P2;SDS_P1;SDS_P2;PMS_P1;PMS_P2;Temp;Humidity;BMP_temperature;BMP_pressure;BME280_temperature;BME280_humidity;BME280_pressure;Samples;Min_cycle;Max_cycle;Signal;HPM_P1;HPM_P2
2022/03/14 00:01:05;;;;;;;10.60;5.83;;;10.70;54.10;;;10.70;41.08;100767.06;5034117;28;21083;-68
2022/03/14 00:03:40;;;;;;;16.23;7.53;;;10.50;54.70;;;10.88;41.18;100763.97;5049510;28;20638;-69
2022/03/14 00:06:10;;;;;;;15.70;8.07;;;10.50;54.90;;;10.90;40.93;100772.53;5033971;28;20655;-68
2022/03/14 00:08:40;;;;;;;13.97;7.50;;;10.50;55.20;;;10.96;41.04;100773.03;5035662;28;20763;-68
2022/03/14 00:11:07;;;;;;;19.07;10.87;;;10.50;55.40;;;10.99;41.41;100768.44;5029928;28;20648;-68
2022/03/14 00:13:34;;;;;;;20.03;10.80;;;10.60;55.70;;;11.05;40.64;100772.41;5019707;28;21203;-67
2022/03/14 00:16:03;;;;;;;20.73;9.93;;;10.60;55.70;;;11.13;41.33;100777.91;5039905;28;20642;-67
2022/03/14 00:18:35;;;;;;;17.80;9.50;;;10.70;55.70;;;11.18;40.78;100779.22;5003903;28;21265;-67
2022/03/14 00:21:02;;;;;;;13.27;7.40;;;10.70;55.90;;;11.19;41.27;100777.44;5031878;28;20631;-68
2022/03/14 00:23:29;;;;;;;19.17;8.60;;;10.80;56.00;;;11.24;40.96;100786.66;5035988;28;20635;-66
2022/03/14 00:25:56;;;;;;;16.27;8.60;;;10.80;56.80;;;11.25;40.91;100788.28;5034361;28;20628;-67
2022/03/14 00:28:23;;;;;;;18.07;8.70;;;10.80;56.20;;;11.26;41.97;100791.75;5014194;28;20660;-67
2022/03/14 00:30:50;;;;;;;17.50;10.33;;;10.90;56.50;;;11.24;41.50;100801.47;5031687;28;20616;-66
2022/03/14 00:33:17;;;;;;;24.00;11.00;;;10.80;56.80;;;11.19;42.46;100793.97;5043717;28;20637;-66
2022/03/14 00:35:43;;;;;;;15.70;8.93;;;10.80;57.20;;;11.23;42.03;100816.31;5052572;28;20654;-67
2022/03/14 00:38:10;;;;;;;15.67;8.77;;;10.80;57.40;;;11.24;41.82;100814.53;5046161;28;20734;-66
2022/03/14 00:40:37;;;;;;;17.87;8.37;;;10.80;57.50;;;11.28;42.50;100836.88;5034734;28;20657;-66
2022/03/14 00:43:04;;;;;;;17.97;9.10;;;10.80;57.70;;;11.27;42.91;100861.31;5052346;28;20623;-67
2022/03/14 00:45:32;;;;;;;20.47;8.97;;;10.90;58.10;;;11.32;43.13;100867.91;5052672;28;20624;-67
2022/03/14 00:47:59;;;;;;;16.00;8.77;;;10.90;58.30;;;11.32;43.43;100864.44;5052599;28;20657;-66
2022/03/14 00:50:26;;;;;;;14.87;8.60;;;10.90;58.70;;;11.26;43.80;100872.72;5009500;28;20651;-67
2022/03/14 00:52:53;;;;;;;18.40;9.03;;;10.90;59.30;;;11.24;43.86;100890.28;5012522;28;20644;-67
2022/03/14 00:55:20;;;;;;;20.37;10.63;;;10.90;59.80;;;11.28;44.10;100892.56;5012494;28;20644;-67
2022/03/14 00:57:47;;;;;;;18.03;9.23;;;10.90;59.90;;;11.26;44.34;100891.84;5013439;28;20613;-67
2022/03/14 01:00:14;;;;;;;19.13;9.53;;;10.80;60.20;;;11.01;44.93;100893.66;5018319;28;20615;-67
2022/03/14 01:02:41;;;;;;;16.67;9.30;;;10.70;61.00;;;11.20;44.75;100901.88;5047068;28;20973;-67
2022/03/14 01:05:08;;;;;;;22.27;9.90;;;10.80;61.10;;;11.21;44.58;100904.38;5038947;28;20676;-66
2022/03/14 01:07:35;;;;;;;21.00;10.00;;;10.80;61.40;;;11.28;43.95;100912.63;5051234;28;21210;-67
2022/03/14 01:10:05;;;;;;;16.83;8.43;;;10.90;61.70;;;11.33;44.86;100918.38;5048880;28;20651;-66
2022/03/14 01:12:33;;;;;;;21.57;10.50;;;10.90;61.80;;;11.40;44.29;100920.44;5033182;28;20985;-68
2022/03/14 01:15:00;;;;;;;18.47;8.10;;;11.00;61.90;;;11.46;44.28;100929.59;5009581;28;20653;-68
2022/03/14 01:17:27;;;;;;;8.57;4.30;;;11.10;62.20;;;11.61;44.27;100936.34;4994050;28;20610;-67
2022/03/14 01:19:54;;;;;;;28.37;9.70;;;11.20;62.90;;;11.70;46.46;100951.41;5006293;28;20621;-67
2022/03/14 01:22:21;;;;;;;17.70;9.43;;;11.30;66.10;;;11.69;50.66;100949.75;5009812;28;20629;-68
2022/03/14 01:24:48;;;;;;;10.80;5.73;;;11.30;72.50;;;11.78;51.90;100956.09;5012006;28;20731;-68
2022/03/14 01:27:15;;;;;;;14.17;8.17;;;11.40;78.70;;;11.89;54.83;100967.47;5012157;28;20638;-67
2022/03/14 01:29:42;;;;;;;20.03;6.90;;;11.50;86.50;;;11.92;56.29;100976.88;5017148;28;21025;-68
2022/03/14 01:32:12;;;;;;;12.63;6.90;;;11.50;91.90;;;11.91;58.23;100994.31;5033699;28;20618;-68
2022/03/14 01:34:39;;;;;;;4.10;2.70;;;11.50;95.70;;;11.97;61.34;101003.53;5040964;28;20762;-67
2022/03/14 01:37:06;;;;;;;7.10;4.23;;;11.60;99.90;;;11.94;62.58;101015.03;5030175;28;20612;-68
2022/03/14 01:39:33;;;;;;;7.53;3.83;;;11.50;99.90;;;11.94;63.02;101015.03;5030318;28;20666;-67
2022/03/14 01:42:00;;;;;;;6.00;3.80;;;11.50;99.90;;;11.94;64.38;101014.19;5030873;28;20715;-67
2022/03/14 01:44:27;;;;;;;3.37;2.53;;;11.60;99.90;;;11.84;66.23;101021.84;5017088;28;20658;-67
2022/03/14 01:46:55;;;;;;;3.50;2.60;;;11.50;99.90;;;11.92;67.24;101022.16;5050801;28;20624;-68
2022/03/14 01:49:22;;;;;;;1.00;1.00;;;11.50;99.90;;;11.77;68.47;101031.09;5049389;28;20674;-68
2022/03/14 01:51:57;;;;;;;3.10;2.90;;;11.40;99.90;;;11.76;69.11;101026.78;5050047;28;20681;-68
2022/03/14 01:54:24;;;;;;;2.77;2.57;;;11.40;99.90;;;11.65;69.89;101027.50;5045514;28;20654;-67
2022/03/14 01:56:51;;;;;;;1.33;1.23;;;11.30;99.90;;;11.76;70.12;101041.63;4993238;28;21163;-68
2022/03/14 01:59:19;;;;;;;2.10;2.00;;;11.30;99.90;;;11.73;70.68;101036.63;5010616;28;20636;-67
2022/03/14 02:01:47;;;;;;;1.07;1.07;;;11.40;99.90;;;11.69;71.45;101046.47;4992644;28;20641;-67
2022/03/14 02:04:18;;;;;;;2.67;2.40;;;11.30;99.90;;;11.53;73.13;101056.28;4993387;28;20728;-67
2022/03/14 02:06:46;;;;;;;1.33;1.23;;;11.20;99.90;;;11.49;73.37;101054.81;5012051;28;20635;-67
2022/03/14 02:09:13;;;;;;;1.90;1.80;;;11.10;99.90;;;11.44;73.50;101060.34;5049502;28;21226;-68
2022/03/14 02:11:56;;;;;;;1.20;1.20;;;11.10;99.90;;;11.46;75.20;101066.31;5050471;28;20615;-68
2022/03/14 02:14:24;;;;;;;0.67;0.50;;;11.10;99.90;;;11.37;77.01;101072.16;5042743;28;21014;-67
2022/03/14 02:16:52;;;;;;;0.70;0.70;;;11.00;99.90;;;11.25;77.95;101082.63;5013695;28;20618;-67
2022/03/14 02:19:22;;;;;;;0.60;0.60;;;11.00;99.90;;;11.21;78.87;101091.59;4999224;28;20736;-67
2022/03/14 02:21:49;;;;;;;0.80;0.80;;;10.90;99.90;;;11.18;79.60;101099.66;5035625;28;21219;-67
2022/03/14 02:24:19;;;;;;;1.00;0.90;;;10.80;99.90;;;11.04;81.62;101111.00;5020198;28;20641;-68
2022/03/14 02:26:46;;;;;;;0.70;0.70;;;10.70;99.90;;;10.84;82.55;101117.53;5030369;28;21338;-67
2022/03/14 02:29:14;;;;;;;1.07;1.07;;;10.60;99.90;;;10.89;82.84;101109.41;5030206;28;20689;-68
2022/03/14 02:31:42;;;;;;;1.07;1.07;;;10.50;99.90;;;10.87;83.63;101109.50;5011580;28;21164;-67
2022/03/14 02:34:11;;;;;;;1.10;1.10;;;10.50;99.90;;;10.84;83.95;101122.75;5032458;28;20655;-67
2022/03/14 02:36:39;;;;;;;1.40;1.40;;;10.50;99.90;;;10.86;84.04;101120.88;5013932;28;20619;-67
2022/03/14 02:39:07;;;;;;;0.87;0.87;;;10.50;99.90;;;10.84;84.10;101122.75;4993092;28;21046;-67
2022/03/14 02:41:35;;;;;;;2.50;1.00;;;10.50;99.90;;;10.77;84.91;101124.13;5011404;28;20641;-68
2022/03/14 02:44:06;;;;;;;1.30;1.20;;;10.40;99.90;;;10.81;84.33;101124.75;5019603;28;20642;-67
2022/03/14 02:46:34;;;;;;;1.13;1.13;;;10.50;99.90;;;10.78;84.79;101122.31;5048391;28;20722;-67
2022/03/14 02:49:01;;;;;;;1.07;1.07;;;10.40;99.90;;;10.79;84.49;101122.25;5043851;28;20668;-68
2022/03/14 02:51:28;;;;;;;0.73;0.73;;;10.40;99.90;;;10.78;84.94;101124.94;5049065;28;20616;-67
2022/03/14 02:53:56;;;;;;;0.43;0.43;;;10.40;99.90;;;10.71;84.04;101126.28;5050122;28;20612;-67
2022/03/14 02:56:24;;;;;;;0.70;0.70;;;10.40;99.90;;;10.72;83.90;101122.72;5027860;28;20648;-68
2022/03/14 02:58:52;;;;;;;0.47;0.47;;;10.30;99.90;;;10.72;83.29;101130.53;5028806;28;20632;-67
2022/03/14 03:01:21;;;;;;;0.40;0.40;;;10.40;99.90;;;10.68;82.94;101137.75;5028578;28;20719;-68
2022/03/14 03:03:49;;;;;;;0.57;0.57;;;10.30;99.90;;;10.71;82.78;101144.56;5029932;28;20659;-68
2022/03/14 03:06:17;;;;;;;0.50;0.50;;;10.40;99.90;;;10.66;83.37;101151.81;5029032;28;20616;-66
2022/03/14 03:08:45;;;;;;;0.40;0.40;;;10.20;99.90;;;10.50;84.35;101156.34;5037870;28;20751;-68
2022/03/14 03:11:15;;;;;;;0.50;0.50;;;10.20;99.90;;;10.43;84.21;101166.34;5029638;28;21218;-67
2022/03/14 03:13:47;;;;;;;0.80;0.70;;;10.10;99.90;;;10.41;83.86;101177.81;5028839;28;21200;-67
2022/03/14 03:16:15;;;;;;;0.70;0.70;;;10.00;99.90;;;10.41;83.60;101185.63;5029421;28;20724;-67
2022/03/14 03:18:44;;;;;;;0.60;0.60;;;10.10;99.90;;;10.34;85.26;101192.16;5013606;28;20623;-67
2022/03/14 03:21:14;;;;;;;0.53;0.53;;;10.00;99.90;;;10.21;85.68;101191.22;5014649;28;21165;-67
2022/03/14 03:23:41;;;;;;;0.50;0.50;;;9.90;99.90;;;10.05;87.06;101196.53;5025698;28;21430;-67
2022/03/14 03:26:08;;;;;;;3.30;0.50;;;9.80;99.90;;;10.01;87.79;101198.47;5026805;28;20706;-67
2022/03/14 03:28:35;;;;;;;0.50;0.50;;;9.70;99.90;;;10.02;88.16;101192.34;5032440;28;20767;-67
2022/03/14 03:31:06;;;;;;;0.50;0.50;;;9.70;99.90;;;9.99;88.58;101202.09;5016007;28;20623;-67
2022/03/14 03:33:35;;;;;;;0.50;0.50;;;9.70;99.90;;;9.94;89.35;101223.25;5033274;28;21229;-67
2022/03/14 03:36:04;;;;;;;0.77;0.60;;;9.60;99.90;;;9.95;89.48;101221.44;5034299;28;20656;-67
2022/03/14 03:38:30;;;;;;;0.50;0.50;;;9.70;99.90;;;9.84;90.36;101227.31;5032930;28;21209;-67
2022/03/14 03:40:57;;;;;;;0.50;0.50;;;9.60;99.90;;;9.83;90.95;101230.00;5016669;28;21000;-68
2022/03/14 03:43:24;;;;;;;0.70;0.70;;;9.60;99.90;;;9.84;90.85;101235.13;5027147;28;20642;-68
2022/03/14 03:45:51;;;;;;;0.50;0.50;;;9.60;99.90;;;9.84;91.10;101245.56;5051588;28;20639;-67
2022/03/14 03:48:18;;;;;;;0.40;0.40;;;9.60;99.90;;;9.85;90.74;101246.41;5042495;28;20988;-67
2022/03/14 03:50:45;;;;;;;2.60;0.80;;;9.50;99.90;;;9.81;90.85;101250.97;5035400;28;20655;-67
2022/03/14 03:53:12;;;;;;;1.07;0.70;;;9.50;99.90;;;9.76;90.96;101257.34;5052114;28;20595;-68
2022/03/14 03:55:39;;;;;;;0.50;0.50;;;9.50;99.90;;;9.68;91.31;101270.00;5024256;28;20648;-67
2022/03/14 03:58:07;;;;;;;0.40;0.40;;;9.40;99.90;;;9.75;90.97;101271.34;5033212;28;20636;-67
2022/03/14 04:00:34;;;;;;;0.50;0.50;;;9.40;99.90;;;9.70;91.71;101275.97;5050398;28;20626;-67
2022/03/14 04:03:01;;;;;;;0.50;0.50;;;9.40;99.90;;;9.64;91.65;101287.59;5048241;28;20632;-67
2022/03/14 04:05:29;;;;;;;0.50;0.50;;;9.30;99.90;;;9.56;92.49;101281.13;5000440;28;20751;-68
2022/03/14 04:08:00;;;;;;;0.27;0.27;;;9.30;99.90;;;9.59;92.43;101280.94;5050569;28;20985;-67
2022/03/14 04:10:30;;;;;;;0.57;0.57;;;9.30;99.90;;;9.63;92.58;101282.44;5051142;28;20673;-67
2022/03/14 04:13:03;;;;;;;0.60;0.57;;;9.40;99.90;;;9.63;93.10;101278.09;5034696;28;21203;-67
2022/03/14 04:15:31;;;;;;;0.40;0.40;;;9.30;99.90;;;9.60;93.25;101280.88;5015314;28;21059;-66
2022/03/14 04:17:59;;;;;;;1.10;1.00;;;9.30;99.90;;;9.57;93.32;101275.00;5031346;28;20628;-67
2022/03/14 04:20:26;;;;;;;0.33;0.33;;;9.30;99.90;;;9.66;92.94;101284.88;5038709;28;21020;-67
2022/03/14 04:22:53;;;;;;;0.70;0.70;;;9.30;99.90;;;9.61;93.63;101279.94;5031546;28;20612;-68
2022/03/14 04:25:20;;;;;;;0.57;0.57;;;9.30;99.90;;;9.64;93.47;101284.13;5033458;28;20632;-67
2022/03/14 04:27:47;;;;;;;0.30;0.30;;;9.30;99.90;;;9.61;93.87;101279.94;5014084;28;20731;-67
2022/03/14 04:30:16;;;;;;;0.57;0.57;;;9.30;99.90;;;9.72;93.11;101287.13;5011526;28;20659;-67
2022/03/14 04:32:44;;;;;;;0.80;0.80;;;9.40;99.90;;;9.70;93.52;101294.19;5010695;28;20608;-67
2022/03/14 04:35:11;;;;;;;1.00;1.00;;;9.40;99.90;;;9.72;93.51;101301.00;5031607;28;20672;-67
2022/03/14 04:37:38;;;;;;;0.83;0.83;;;9.40;99.90;;;9.71;93.79;101312.34;5014919;28;20717;-68
2022/03/14 04:40:08;;;;;;;0.83;0.60;;;9.40;99.90;;;9.72;93.61;101307.97;5032650;28;20694;-67
2022/03/14 04:42:34;;;;;;;0.70;0.70;;;9.40;99.90;;;9.68;93.80;101322.13;5032289;28;20727;-67
2022/03/14 04:45:02;;;;;;;0.70;0.70;;;9.30;99.90;;;9.65;93.91;101323.13;5051188;28;20690;-67
2022/03/14 04:47:30;;;;;;;0.43;0.43;;;9.40;99.90;;;9.67;93.04;101336.09;5034020;28;20999;-68
2022/03/14 04:49:57;;;;;;;0.77;0.77;;;9.40;99.90;;;9.70;93.64;101330.69;5050523;28;20655;-68
2022/03/14 04:52:24;;;;;;;0.50;0.50;;;9.40;99.90;;;9.62;94.19;101331.13;4997887;28;21010;-68
2022/03/14 04:54:55;;;;;;;0.93;0.93;;;9.30;99.90;;;9.59;94.26;101336.50;5014986;28;20650;-67
2022/03/14 04:57:22;;;;;;;1.30;1.20;;;9.30;99.90;;;9.69;93.69;101344.66;5027854;28;21234;-68
2022/03/14 04:59:49;;;;;;;0.77;0.77;;;9.30;99.90;;;9.66;93.79;101347.44;5051425;28;20627;-67
2022/03/14 05:02:23;;;;;;;1.17;1.17;;;9.30;99.90;;;9.68;93.91;101351.63;5051493;28;20658;-67
2022/03/14 05:04:52;;;;;;;1.17;0.80;;;9.30;99.90;;;9.75;93.59;101357.34;5012180;28;20752;-67
2022/03/14 05:07:20;;;;;;;1.30;1.17;;;9.40;99.90;;;9.68;93.55;101363.81;5012401;28;20682;-67
2022/03/14 05:09:46;;;;;;;1.20;1.20;;;9.40;99.90;;;9.68;93.24;101363.81;5013138;28;20661;-67
2022/03/14 05:12:14;;;;;;;1.27;1.17;;;9.40;99.90;;;9.71;93.70;101368.84;5014151;28;20616;-67
2022/03/14 05:14:41;;;;;;;1.20;1.20;;;9.40;99.90;;;9.73;93.44;101367.00;5017833;28;20738;-67
2022/03/14 05:17:09;;;;;;;1.03;1.03;;;9.40;99.90;;;9.74;92.95;101376.50;5051241;28;20619;-68
2022/03/14 05:19:36;;;;;;;1.10;1.10;;;9.40;99.90;;;9.76;92.34;101383.28;5026607;28;20631;-68
2022/03/14 05:22:07;;;;;;;1.30;1.30;;;9.40;99.90;;;9.78;91.95;101391.88;5031861;28;21168;-66
2022/03/14 05:24:34;;;;;;;1.83;1.10;;;9.40;99.90;;;9.84;90.88;101393.28;5012858;28;20652;-67
2022/03/14 05:27:01;;;;;;;1.30;1.30;;;9.50;99.90;;;9.86;90.87;101392.25;5044328;28;20624;-68
2022/03/14 05:29:28;;;;;;;1.47;1.47;;;9.50;99.90;;;9.90;90.45;101392.94;5051236;28;20658;-67
2022/03/14 05:31:55;;;;;;;1.07;1.07;;;9.60;99.90;;;9.93;89.91;101397.97;5051741;28;20782;-68
2022/03/14 05:34:22;;;;;;;1.07;1.07;;;9.60;99.90;;;9.97;89.39;101402.94;5041582;28;21238;-67
2022/03/14 05:36:48;;;;;;;1.10;1.00;;;9.60;99.90;;;10.07;88.52;101404.06;5041464;28;20625;-67
2022/03/14 05:39:15;;;;;;;1.40;1.30;;;9.80;99.90;;;10.09;88.14;101409.22;5031547;28;20619;-67
2022/03/14 05:41:42;;;;;;;1.00;1.00;;;9.70;99.90;;;10.01;88.16;101408.78;5031651;28;20631;-67
2022/03/14 05:44:09;;;;;;;1.40;1.30;;;9.70;99.90;;;10.03;87.39;101410.38;5029856;28;20675;-67
2022/03/14 05:46:36;;;;;;;1.40;1.30;;;9.70;99.90;;;10.00;87.20;101412.34;5018762;28;20639;-67
2022/03/14 05:49:04;;;;;;;1.70;1.60;;;9.70;99.90;;;10.00;86.90;101420.16;5013562;28;20723;-68
2022/03/14 05:51:34;;;;;;;2.17;1.97;;;9.70;99.90;;;10.01;85.84;101432.25;5030605;28;20698;-69
2022/03/14 05:54:01;;;;;;;4.00;3.03;;;9.60;99.90;;;10.00;84.77;101428.84;5049304;28;20689;-67
2022/03/14 05:56:28;;;;;;;3.03;2.73;;;9.70;99.90;;;10.03;84.64;101440.84;5039753;28;20616;-67
2022/03/14 05:58:55;;;;;;;3.10;2.80;;;9.70;99.90;;;9.99;83.33;101439.31;5030991;28;20660;-67
2022/03/14 06:01:26;;;;;;;3.03;2.73;;;9.70;99.90;;;10.00;83.15;101443.63;5013355;28;21235;-68
2022/03/14 06:03:53;;;;;;;4.60;3.30;;;9.70;99.90;;;10.07;82.80;101443.19;5030983;28;20695;-67
2022/03/14 06:06:20;;;;;;;10.50;3.73;;;9.80;99.90;;;10.04;83.67;101453.81;5034203;28;20673;-67
2022/03/14 06:08:47;;;;;;;3.13;2.77;;;9.70;99.90;;;10.09;83.12;101461.38;5050350;28;21253;-68
2022/03/14 06:11:14;;;;;;;1.80;1.70;;;9.80;99.90;;;10.05;82.80;101473.72;5013986;28;21034;-68
2022/03/14 06:13:42;;;;;;;3.77;2.87;;;9.80;99.90;;;10.07;81.41;101473.66;5012038;28;20727;-67
2022/03/14 06:16:08;;;;;;;5.57;2.50;;;9.70;99.90;;;10.05;81.41;101480.72;5032247;28;20639;-68
2022/03/14 06:18:35;;;;;;;5.93;2.60;;;9.70;99.90;;;10.13;81.29;101478.56;5046299;28;21198;-68
2022/03/14 06:21:02;;;;;;;4.70;3.47;;;9.80;99.90;;;10.16;81.19;101495.81;5033860;28;20645;-67
2022/03/14 06:23:29;;;;;;;3.10;1.63;;;9.90;99.90;;;10.03;81.05;101501.66;5044708;28;20682;-67
2022/03/14 06:25:57;;;;;;;2.87;2.67;;;9.80;99.90;;;10.14;79.72;101503.69;5024402;28;20675;-67
2022/03/14 06:28:24;;;;;;;2.93;2.53;;;9.80;99.90;;;10.12;79.83;101510.75;5043298;28;20632;-67
2022/03/14 06:30:51;;;;;;;2.03;1.90;;;9.80;99.90;;;10.12;80.86;101497.72;5050684;28;20667;-67
2022/03/14 06:33:18;;;;;;;2.17;1.90;;;9.80;99.90;;;10.14;80.44;101503.69;5049701;28;20798;-66
2022/03/14 06:35:46;;;;;;;1.73;1.63;;;9.80;99.90;;;10.04;78.47;101518.16;5028875;28;20660;-67
2022/03/14 06:38:13;;;;;;;4.20;2.10;;;9.80;99.90;;;10.15;78.41;101515.81;5029983;28;20596;-67
2022/03/14 06:40:41;;;;;;;2.67;2.10;;;9.80;99.90;;;10.11;78.71;101527.34;4996679;28;20632;-67
2022/03/14 06:43:10;;;;;;;2.90;2.40;;;9.80;99.90;;;10.06;78.85;101524.13;5031454;28;20640;-66
2022/03/14 06:45:39;;;;;;;2.23;2.00;;;9.80;99.90;;;10.10;79.02;101539.53;5008426;28;21248;-67
2022/03/14 06:48:07;;;;;;;3.20;1.93;;;9.80;99.90;;;10.09;79.17;101537.00;5010589;28;20637;-67
2022/03/14 06:50:37;;;;;;;3.40;1.93;;;9.80;99.90;;;10.12;78.91;101547.28;5014415;28;20670;-67
2022/03/14 06:53:04;;;;;;;3.67;1.80;;;9.80;99.90;;;10.05;78.80;101546.72;5018123;28;20740;-67
2022/03/14 06:55:31;;;;;;;2.50;1.70;;;9.90;99.90;;;10.11;78.55;101548.22;5015163;28;20664;-67
2022/03/14 06:57:58;;;;;;;1.67;1.43;;;9.80;99.90;;;10.16;78.28;101543.56;5014988;28;20703;-67
2022/03/14 07:00:27;;;;;;;1.70;1.60;;;9.90;99.90;;;10.17;78.48;101544.41;5031106;28;20739;-67
2022/03/14 07:02:54;;;;;;;2.10;2.00;;;9.90;99.90;;;10.18;78.17;101552.13;5033520;28;20616;-66
2022/03/14 07:05:24;;;;;;;1.20;1.10;;;9.90;99.90;;;10.31;78.10;101552.31;5029565;28;20730;-68
2022/03/14 07:07:51;;;;;;;0.97;0.97;;;10.10;99.90;;;10.07;79.25;101564.91;5035015;28;20690;-67
2022/03/14 07:10:19;;;;;;;1.40;1.23;;;9.90;99.90;;;10.22;78.70;101564.13;5032925;28;20663;-67
2022/03/14 07:12:48;;;;;;;1.63;1.37;;;10.00;99.90;;;10.22;79.15;101558.91;5021125;28;21189;-67
2022/03/14 07:15:21;;;;;;;1.57;1.47;;;9.90;99.90;;;10.25;79.22;101565.69;5028761;28;20694;-67
2022/03/14 07:17:50;;;;;;;1.57;1.47;;;10.00;99.90;;;10.28;78.90;101573.34;5032635;28;20724;-67
2022/03/14 07:20:20;;;;;;;1.10;1.10;;;10.00;99.90;;;10.40;78.44;101577.88;5033870;28;20623;-67
2022/03/14 07:22:50;;;;;;;2.43;1.50;;;10.10;99.90;;;10.43;78.50;101581.16;5041650;28;20730;-67
2022/03/14 07:25:34;;;;;;;3.43;1.37;;;10.20;99.90;;;10.49;78.53;101588.66;5038881;28;20668;-67
2022/03/14 07:28:04;;;;;;;1.37;1.27;;;10.30;99.90;;;10.65;77.76;101585.97;5012321;28;20636;-67
2022/03/14 07:30:32;;;;;;;3.90;1.40;;;10.40;99.90;;;10.93;77.29;101591.31;5014933;28;20695;-67
2022/03/14 07:32:59;;;;;;;1.30;1.30;;;10.80;99.90;;;11.16;75.88;101600.44;5015555;28;20648;-68
2022/03/14 07:35:27;;;;;;;1.57;1.00;;;11.10;99.90;;;11.24;74.52;101606.03;5031691;28;20663;-68
2022/03/14 07:37:54;;;;;;;1.23;0.70;;;11.20;99.90;;;11.48;73.74;101609.78;5013989;28;20827;-67
2022/03/14 07:40:21;;;;;;;1.20;1.10;;;11.40;99.90;;;11.58;73.11;101609.13;5026005;28;20639;-67
2022/03/14 07:42:53;;;;;;;2.87;1.20;;;11.60;99.90;;;11.81;72.00;101614.78;5052201;28;20619;-67
2022/03/14 07:45:24;;;;;;;1.20;1.10;;;11.80;99.90;;;11.88;71.80;101627.38;5044010;28;20799;-67
2022/03/14 07:47:53;;;;;;;1.87;1.50;;;11.90;99.90;;;12.00;70.65;101625.78;5049041;28;20634;-67
2022/03/14 07:50:21;;;;;;;4.30;1.43;;;12.00;99.90;;;12.02;70.36;101629.13;5044075;28;21251;-67
2022/03/14 07:52:48;;;;;;;2.93;1.77;;;12.00;99.90;;;11.93;70.09;101630.53;5053144;28;20608;-67
2022/03/14 07:55:15;;;;;;;1.60;1.37;;;12.00;99.90;;;12.02;71.04;101640.44;5052939;28;20722;-67
2022/03/14 07:57:43;;;;;;;1.40;1.30;;;12.00;99.90;;;11.99;70.87;101634.56;5037758;28;20628;-68
2022/03/14 08:00:14;;;;;;;2.83;1.60;;;12.00;99.90;;;11.88;71.06;101645.69;5035952;28;20710;-68
2022/03/14 08:02:42;;;;;;;2.87;1.93;;;12.00;99.90;;;11.87;70.63;101651.00;5050048;28;20722;-67
2022/03/14 08:05:14;;;;;;;2.57;1.87;;;11.80;99.90;;;11.89;69.89;101654.34;5014853;28;20714;-67
2022/03/14 08:07:45;;;;;;;1.73;1.30;;;11.90;99.90;;;11.89;69.74;101652.59;5032559;28;20624;-66
2022/03/14 08:10:15;;;;;;;1.77;1.67;;;11.90;99.90;;;11.97;70.10;101673.88;5014992;28;21334;-67
2022/03/14 08:12:50;;;;;;;2.03;1.90;;;12.00;99.90;;;12.16;69.02;101668.38;5015322;28;20639;-67
2022/03/14 08:15:30;;;;;;;2.80;2.30;;;12.20;99.90;;;12.34;67.96;101673.28;5030163;28;20687;-67
2022/03/14 08:18:01;;;;;;;2.60;1.90;;;12.50;99.90;;;12.65;67.10;101669.56;5030061;28;20856;-67
2022/03/14 08:20:29;;;;;;;2.40;1.97;;;12.80;99.90;;;12.71;66.29;101676.19;5032096;28;20655;-66
2022/03/14 08:22:58;;;;;;;1.57;1.47;;;13.00;99.90;;;12.61;65.58;101680.31;5031633;28;20660;-67
2022/03/14 08:25:26;;;;;;;1.70;1.60;;;12.80;99.90;;;12.50;65.91;101683.63;5030760;28;20640;-68
2022/03/14 08:27:53;;;;;;;1.83;1.73;;;12.60;99.90;;;12.38;66.03;101680.00;5032097;28;20620;-67
2022/03/14 08:30:21;;;;;;;5.33;1.90;;;12.60;99.90;;;12.50;64.92;101688.03;5032452;28;21243;-68
2022/03/14 08:32:50;;;;;;;1.80;1.70;;;12.60;99.90;;;12.80;64.97;101693.94;5030959;28;20648;-67
2022/03/14 08:35:19;;;;;;;1.50;1.40;;;12.90;99.90;;;13.33;62.89;101693.91;5031971;28;20648;-68
2022/03/14 08:37:47;;;;;;;2.20;1.80;;;13.60;99.90;;;13.50;61.59;101690.97;5031442;28;21027;-68
2022/03/14 08:40:20;;;;;;;5.40;2.10;;;13.80;99.90;;;13.64;61.16;101698.78;5031244;28;20662;-69
2022/03/14 08:42:50;;;;;;;2.03;1.10;;;13.90;99.90;;;14.17;61.05;101705.56;5029509;28;20664;-68
2022/03/14 08:45:17;;;;;;;4.40;1.63;;;14.40;99.90;;;15.01;58.29;101703.88;5031465;28;20802;-67
2022/03/14 08:47:44;;;;;;;2.10;2.00;;;15.50;99.90;;;15.99;55.97;101709.50;5013669;28;21269;-69
2022/03/14 08:50:12;;;;;;;3.57;1.50;;;16.70;99.90;;;16.85;52.99;101717.59;5026403;28;21275;-68
2022/03/14 08:52:41;;;;;;;2.37;1.83;;;17.80;96.30;;;16.97;51.45;101716.63;5012851;28;20690;-69
2022/03/14 08:55:08;;;;;;;3.20;1.60;;;18.00;93.70;;;16.74;51.37;101717.63;5032128;28;20656;-67
2022/03/14 08:57:43;;;;;;;3.37;1.50;;;17.60;93.00;;;16.45;51.98;101721.72;5043326;28;20620;-67
2022/03/14 09:00:11;;;;;;;3.10;1.50;;;17.00;93.90;;;16.34;51.78;101719.94;5028734;28;20642;-67
2022/03/14 09:02:38;;;;;;;3.17;1.97;;;16.80;94.10;;;16.10;52.66;101721.84;5050606;28;20616;-68
2022/03/14 09:05:06;;;;;;;1.90;1.73;;;16.60;94.70;;;15.93;53.07;101722.34;5046692;28;20706;-68
2022/03/14 09:07:33;;;;;;;1.70;1.60;;;16.60;94.50;;;16.40;52.00;101732.63;5015153;28;20619;-69
2022/03/14 09:10:06;;;;;;;2.47;2.07;;;16.90;94.20;;;16.90;51.02;101736.53;5014233;28;20795;-68
2022/03/14 09:12:34;;;;;;;1.00;0.77;;;17.50;93.20;;;18.08;46.88;101729.22;5027204;28;20671;-68
2022/03/14 09:15:02;;;;;;;2.50;1.83;;;19.80;83.40;;;19.51;43.31;101745.41;5032443;28;20687;-68
2022/03/14 09:17:31;;;;;;;1.50;1.40;;;21.20;73.50;;;19.56;42.28;101734.38;5017223;28;21171;-69
2022/03/14 09:20:00;;;;;;;3.73;1.67;;;21.60;67.10;;;20.01;41.76;101730.94;5029711;28;20663;-69
2022/03/14 09:22:28;;;;;;;1.60;1.23;;;21.40;67.80;;;22.13;38.31;101744.34;5027286;28;20633;-68
2022/03/14 09:24:57;;;;;;;1.40;1.30;;;23.90;61.70;;;24.12;34.32;101746.69;5021174;28;20698;-69
2022/03/14 09:27:25;;;;;;;5.13;1.70;;;26.90;53.70;;;24.98;33.14;101747.44;5031278;28;20636;-68
2022/03/14 09:29:52;;;;;;;1.60;1.43;;;27.60;50.80;;;25.26;32.17;101750.41;5029926;28;20632;-67
2022/03/14 09:32:20;;;;;;;1.33;1.23;;;27.70;48.90;;;24.85;31.61;101747.22;5052647;28;21301;-69
2022/03/14 09:34:47;;;;;;;0.90;0.90;;;27.40;47.50;;;21.72;34.82;101753.03;5034283;28;20917;-69
2022/03/14 09:37:14;;;;;;;2.27;1.30;;;24.60;48.70;;;20.88;37.38;101752.59;4997251;28;20708;-68
2022/03/14 09:39:41;;;;;;;1.63;1.17;;;22.50;52.60;;;20.42;38.81;101752.72;5008748;28;20705;-67
2022/03/14 09:42:12;;;;;;;1.17;1.07;;;21.50;55.30;;;19.63;40.54;101752.22;5015177;28;20620;-69
2022/03/14 09:44:42;;;;;;;2.30;1.00;;;20.50;57.60;;;17.65;44.52;101755.78;5021364;28;21118;-68
2022/03/14 09:47:13;;;;;;;0.40;0.40;;;19.20;60.70;;;16.54;47.43;101748.22;5024914;28;20714;-69
2022/03/14 09:49:44;;;;;;;2.40;1.20;;;17.60;65.60;;;16.12;48.54;101757.63;5010511;28;20739;-68
2022/03/14 09:52:11;;;;;;;2.67;1.10;;;16.60;70.50;;;15.68;50.28;101757.56;5029560;28;20662;-68
2022/03/14 09:54:38;;;;;;;1.83;1.27;;;16.00;76.70;;;15.54;50.56;101763.84;5011941;28;20711;-68
2022/03/14 09:57:05;;;;;;;2.97;1.23;;;15.60;82.90;;;15.50;50.75;101761.59;5031443;28;20720;-68
2022/03/14 09:59:35;;;;;;;1.20;1.10;;;15.70;87.00;;;15.01;52.23;101761.69;5029139;28;20660;-67
2022/03/14 10:02:04;;;;;;;0.97;0.90;;;15.40;89.90;;;15.01;51.90;101763.47;5025313;28;20612;-69
2022/03/14 10:04:31;;;;;;;2.63;1.23;;;15.10;90.90;;;14.73;52.71;101765.47;5013964;28;20663;-69
2022/03/14 10:06:58;;;;;;;0.57;0.57;;;14.80;92.70;;;14.69;53.27;101776.31;5018446;28;20636;-68
2022/03/14 10:09:25;;;;;;;2.90;1.27;;;14.70;93.90;;;14.92;52.91;101772.03;5049979;28;20616;-69
2022/03/14 10:11:52;;;;;;;0.90;0.90;;;15.10;94.30;;;16.00;51.22;101782.28;5044366;28;20748;-68
2022/03/14 10:14:19;;;;;;;1.20;1.10;;;16.40;92.60;;;17.91;46.64;101780.81;5031451;28;20656;-69
2022/03/14 10:16:47;;;;;;;3.90;0.90;;;18.80;84.70;;;19.69;41.57;101779.94;5025993;28;21691;-67
2022/03/14 10:19:22;;;;;;;0.90;0.90;;;21.60;69.20;;;19.36;41.15;101789.13;5024460;28;20621;-68